sensor_id;sensor_type;location;lat;lon;timestamp;P1;durP1;ratioP1;P2;durP2;ratioP2
53034;SDS011;38923;53.236;6.506;2022-09-03T00:08:08;3.63;;;0.63;;
53034;SDS011;38923;53.236;6.506;2022-09-03T00:11:06;5.20;;;0.80;;
53034;SDS011;38923;53.236;6.506;2022-09-03T00:13:53;4.95;;;0.63;;
53034;SDS011;38923;53.236;6.506;2022-09-03T00:16:22;1.67;;;0.60;;
53034;SDS011;38923;53.236;6.506;2022-09-03T00:18:57;4.32;;;0.60;;
53034;SDS011;38923;53.236;6.506;2022-09-03T00:24:02;2.83;;;0.50;;
53034;SDS011;38923;53.236;6.506;2022-09-03T00:26:32;2.25;;;0.60;;
53034;SDS011;38923;53.236;6.506;2022-09-03T00:31:50;2.28;;;0.77;;
53034;SDS011;38923;53.236;6.506;2022-09-03T00:34:20;1.65;;;0.40;;
53034;SDS011;38923;53.236;6.506;2022-09-03T00:36:51;1.52;;;0.50;;
53034;SDS011;38923;53.236;6.506;2022-09-03T00:39:18;3.58;;;0.60;;
53034;SDS011;38923;53.236;6.506;2022-09-03T00:47:28;2.55;;;0.60;;
53034;SDS011;38923;53.236;6.506;2022-09-03T00:50:08;2.35;;;0.52;;
53034;SDS011;38923;53.236;6.506;2022-09-03T00:52:39;2.58;;;0.68;;
53034;SDS011;38923;53.236;6.506;2022-09-03T00:55:30;2.58;;;0.50;;
53034;SDS011;38923;53.236;6.506;2022-09-03T01:00:57;1.88;;;0.63;;
53034;SDS011;38923;53.236;6.506;2022-09-03T01:03:32;3.88;;;0.60;;
53034;SDS011;38923;53.236;6.506;2022-09-03T01:06:10;3.72;;;0.63;;
53034;SDS011;38923;53.236;6.506;2022-09-03T01:11:23;1.95;;;0.55;;
53034;SDS011;38923;53.236;6.506;2022-09-03T01:32:35;2.15;;;0.60;;
53034;SDS011;38923;53.236;6.506;2022-09-03T01:35:10;2.28;;;0.50;;
53034;SDS011;38923;53.236;6.506;2022-09-03T01:38:00;3.25;;;0.50;;
53034;SDS011;38923;53.236;6.506;2022-09-03T01:40:52;5.05;;;0.90;;
53034;SDS011;38923;53.236;6.506;2022-09-03T01:46:41;3.15;;;0.57;;
53034;SDS011;38923;53.236;6.506;2022-09-03T01:51:48;3.40;;;0.50;;
53034;SDS011;38923;53.236;6.506;2022-09-03T01:54:24;0.82;;;0.43;;
53034;SDS011;38923;53.236;6.506;2022-09-03T01:59:58;2.13;;;0.70;;
53034;SDS011;38923;53.236;6.506;2022-09-03T02:02:34;1.58;;;0.52;;
53034;SDS011;38923;53.236;6.506;2022-09-03T02:07:46;7.18;;;1.00;;
53034;SDS011;38923;53.236;6.506;2022-09-03T02:10:21;3.85;;;0.70;;
53034;SDS011;38923;53.236;6.506;2022-09-03T02:12:55;7.10;;;0.75;;
53034;SDS011;38923;53.236;6.506;2022-09-03T02:15:26;1.38;;;0.70;;
53034;SDS011;38923;53.236;6.506;2022-09-03T02:17:54;2.72;;;0.90;;
53034;SDS011;38923;53.236;6.506;2022-09-03T02:20:24;6.75;;;0.90;;
53034;SDS011;38923;53.236;6.506;2022-09-03T02:22:52;3.63;;;0.90;;
53034;SDS011;38923;53.236;6.506;2022-09-03T02:25:21;1.80;;;0.75;;
53034;SDS011;38923;53.236;6.506;2022-09-03T02:27:50;5.05;;;0.90;;
53034;SDS011;38923;53.236;6.506;2022-09-03T02:30:17;5.82;;;0.70;;
53034;SDS011;38923;53.236;6.506;2022-09-03T02:32:43;3.33;;;1.00;;
53034;SDS011;38923;53.236;6.506;2022-09-03T02:35:09;4.63;;;0.90;;
53034;SDS011;38923;53.236;6.506;2022-09-03T02:37:34;7.57;;;0.98;;
53034;SDS011;38923;53.236;6.506;2022-09-03T02:40:00;1.00;;;0.60;;
53034;SDS011;38923;53.236;6.506;2022-09-03T02:42:32;2.30;;;0.80;;
53034;SDS011;38923;53.236;6.506;2022-09-03T02:45:06;5.90;;;0.80;;
53034;SDS011;38923;53.236;6.506;2022-09-03T02:47:54;2.53;;;0.60;;
53034;SDS011;38923;53.236;6.506;2022-09-03T02:50:21;2.72;;;0.80;;
53034;SDS011;38923;53.236;6.506;2022-09-03T02:52:48;4.55;;;1.00;;
53034;SDS011;38923;53.236;6.506;2022-09-03T02:55:14;1.05;;;0.70;;
53034;SDS011;38923;53.236;6.506;2022-09-03T02:57:40;6.38;;;1.25;;
53034;SDS011;38923;53.236;6.506;2022-09-03T03:00:06;2.33;;;0.70;;
53034;SDS011;38923;53.236;6.506;2022-09-03T03:02:33;2.83;;;0.80;;
53034;SDS011;38923;53.236;6.506;2022-09-03T03:04:59;1.80;;;1.02;;
53034;SDS011;38923;53.236;6.506;2022-09-03T03:07:26;2.30;;;0.90;;
53034;SDS011;38923;53.236;6.506;2022-09-03T03:09:56;1.33;;;0.70;;
53034;SDS011;38923;53.236;6.506;2022-09-03T03:12:22;2.30;;;0.90;;
53034;SDS011;38923;53.236;6.506;2022-09-03T03:14:48;1.77;;;0.57;;
53034;SDS011;38923;53.236;6.506;2022-09-03T03:17:14;3.42;;;0.88;;
53034;SDS011;38923;53.236;6.506;2022-09-03T03:19:39;3.20;;;0.80;;
53034;SDS011;38923;53.236;6.506;2022-09-03T03:22:05;1.70;;;0.88;;
53034;SDS011;38923;53.236;6.506;2022-09-03T03:24:31;1.98;;;0.90;;
53034;SDS011;38923;53.236;6.506;2022-09-03T03:26:57;3.80;;;0.90;;
53034;SDS011;38923;53.236;6.506;2022-09-03T03:29:23;4.22;;;0.90;;
53034;SDS011;38923;53.236;6.506;2022-09-03T03:31:49;3.55;;;0.80;;
53034;SDS011;38923;53.236;6.506;2022-09-03T03:34:15;4.45;;;1.13;;
53034;SDS011;38923;53.236;6.506;2022-09-03T03:36:41;1.88;;;0.82;;
53034;SDS011;38923;53.236;6.506;2022-09-03T03:39:07;3.05;;;1.13;;
53034;SDS011;38923;53.236;6.506;2022-09-03T03:41:34;3.35;;;0.88;;
53034;SDS011;38923;53.236;6.506;2022-09-03T03:44:04;4.45;;;0.90;;
53034;SDS011;38923;53.236;6.506;2022-09-03T03:46:38;2.63;;;1.10;;
53034;SDS011;38923;53.236;6.506;2022-09-03T03:49:05;2.95;;;0.95;;
53034;SDS011;38923;53.236;6.506;2022-09-03T03:51:32;3.72;;;1.20;;
53034;SDS011;38923;53.236;6.506;2022-09-03T03:53:59;2.95;;;0.95;;
53034;SDS011;38923;53.236;6.506;2022-09-03T03:56:25;3.95;;;1.00;;
53034;SDS011;38923;53.236;6.506;2022-09-03T03:58:51;5.35;;;1.10;;
53034;SDS011;38923;53.236;6.506;2022-09-03T04:01:19;2.50;;;0.90;;
53034;SDS011;38923;53.236;6.506;2022-09-03T04:03:49;2.70;;;0.93;;
53034;SDS011;38923;53.236;6.506;2022-09-03T04:06:16;7.38;;;1.10;;
53034;SDS011;38923;53.236;6.506;2022-09-03T04:08:44;3.47;;;1.13;;
53034;SDS011;38923;53.236;6.506;2022-09-03T04:11:12;4.30;;;1.10;;
53034;SDS011;38923;53.236;6.506;2022-09-03T04:13:44;3.00;;;1.13;;
53034;SDS011;38923;53.236;6.506;2022-09-03T04:16:18;2.00;;;1.00;;
53034;SDS011;38923;53.236;6.506;2022-09-03T04:18:45;5.22;;;1.27;;
53034;SDS011;38923;53.236;6.506;2022-09-03T04:21:14;2.80;;;1.02;;
53034;SDS011;38923;53.236;6.506;2022-09-03T04:23:43;2.72;;;0.98;;
53034;SDS011;38923;53.236;6.506;2022-09-03T04:26:10;3.58;;;0.90;;
53034;SDS011;38923;53.236;6.506;2022-09-03T04:28:37;1.60;;;1.00;;
53034;SDS011;38923;53.236;6.506;2022-09-03T04:31:07;1.88;;;1.00;;
53034;SDS011;38923;53.236;6.506;2022-09-03T04:33:34;3.05;;;1.17;;
53034;SDS011;38923;53.236;6.506;2022-09-03T04:36:15;5.35;;;1.30;;
53034;SDS011;38923;53.236;6.506;2022-09-03T04:38:43;2.92;;;1.15;;
53034;SDS011;38923;53.236;6.506;2022-09-03T04:41:11;2.10;;;1.40;;
53034;SDS011;38923;53.236;6.506;2022-09-03T04:43:39;2.30;;;1.10;;
53034;SDS011;38923;53.236;6.506;2022-09-03T04:46:08;2.03;;;1.30;;
53034;SDS011;38923;53.236;6.506;2022-09-03T04:48:35;3.22;;;1.13;;
53034;SDS011;38923;53.236;6.506;2022-09-03T04:51:09;3.40;;;1.20;;
53034;SDS011;38923;53.236;6.506;2022-09-03T04:53:44;3.50;;;1.35;;
53034;SDS011;38923;53.236;6.506;2022-09-03T04:56:12;1.55;;;0.95;;
53034;SDS011;38923;53.236;6.506;2022-09-03T04:58:42;3.53;;;1.52;;
53034;SDS011;38923;53.236;6.506;2022-09-03T05:01:14;2.42;;;1.27;;
53034;SDS011;38923;53.236;6.506;2022-09-03T05:03:42;4.55;;;1.40;;
53034;SDS011;38923;53.236;6.506;2022-09-03T05:06:08;3.63;;;1.55;;
53034;SDS011;38923;53.236;6.506;2022-09-03T05:08:35;3.10;;;1.35;;
53034;SDS011;38923;53.236;6.506;2022-09-03T05:11:04;4.05;;;1.27;;
53034;SDS011;38923;53.236;6.506;2022-09-03T05:13:32;2.53;;;1.30;;
53034;SDS011;38923;53.236;6.506;2022-09-03T05:16:03;2.83;;;1.13;;
53034;SDS011;38923;53.236;6.506;2022-09-03T05:18:30;2.30;;;1.20;;
53034;SDS011;38923;53.236;6.506;2022-09-03T05:21:00;5.00;;;1.48;;
53034;SDS011;38923;53.236;6.506;2022-09-03T05:23:27;3.15;;;1.10;;
53034;SDS011;38923;53.236;6.506;2022-09-03T05:25:58;2.63;;;1.23;;
53034;SDS011;38923;53.236;6.506;2022-09-03T05:28:30;4.43;;;1.40;;
53034;SDS011;38923;53.236;6.506;2022-09-03T05:30:59;3.88;;;1.27;;
53034;SDS011;38923;53.236;6.506;2022-09-03T05:33:26;3.92;;;1.25;;
53034;SDS011;38923;53.236;6.506;2022-09-03T05:35:52;4.53;;;1.20;;
53034;SDS011;38923;53.236;6.506;2022-09-03T05:38:19;2.33;;;1.30;;
53034;SDS011;38923;53.236;6.506;2022-09-03T05:40:45;4.07;;;1.30;;
53034;SDS011;38923;53.236;6.506;2022-09-03T05:43:11;3.33;;;1.38;;
53034;SDS011;38923;53.236;6.506;2022-09-03T05:45:37;3.40;;;1.13;;
53034;SDS011;38923;53.236;6.506;2022-09-03T05:48:03;2.88;;;1.25;;
53034;SDS011;38923;53.236;6.506;2022-09-03T05:50:29;3.05;;;1.25;;
53034;SDS011;38923;53.236;6.506;2022-09-03T05:52:54;3.75;;;1.45;;
53034;SDS011;38923;53.236;6.506;2022-09-03T05:55:22;4.80;;;1.45;;
53034;SDS011;38923;53.236;6.506;2022-09-03T05:57:51;4.20;;;1.05;;
53034;SDS011;38923;53.236;6.506;2022-09-03T06:00:16;8.00;;;1.60;;
53034;SDS011;38923;53.236;6.506;2022-09-03T06:02:49;3.08;;;1.40;;
53034;SDS011;38923;53.236;6.506;2022-09-03T06:05:18;6.15;;;1.70;;
53034;SDS011;38923;53.236;6.506;2022-09-03T06:07:44;2.58;;;1.30;;
53034;SDS011;38923;53.236;6.506;2022-09-03T06:10:13;3.10;;;1.10;;
53034;SDS011;38923;53.236;6.506;2022-09-03T06:12:42;3.13;;;1.13;;
53034;SDS011;38923;53.236;6.506;2022-09-03T06:15:10;3.33;;;1.10;;
53034;SDS011;38923;53.236;6.506;2022-09-03T06:17:36;2.17;;;1.10;;
53034;SDS011;38923;53.236;6.506;2022-09-03T06:20:02;2.30;;;1.15;;
53034;SDS011;38923;53.236;6.506;2022-09-03T06:22:28;2.88;;;1.30;;
53034;SDS011;38923;53.236;6.506;2022-09-03T06:24:55;6.28;;;1.52;;
53034;SDS011;38923;53.236;6.506;2022-09-03T06:27:21;5.25;;;1.50;;
53034;SDS011;38923;53.236;6.506;2022-09-03T06:29:46;5.35;;;1.42;;
53034;SDS011;38923;53.236;6.506;2022-09-03T06:32:12;3.00;;;1.35;;
53034;SDS011;38923;53.236;6.506;2022-09-03T06:34:38;1.88;;;1.10;;
53034;SDS011;38923;53.236;6.506;2022-09-03T06:37:04;3.13;;;1.13;;
53034;SDS011;38923;53.236;6.506;2022-09-03T06:39:30;2.67;;;1.27;;
53034;SDS011;38923;53.236;6.506;2022-09-03T06:41:55;3.17;;;1.40;;
53034;SDS011;38923;53.236;6.506;2022-09-03T06:44:21;3.22;;;1.20;;
53034;SDS011;38923;53.236;6.506;2022-09-03T06:46:47;2.63;;;1.33;;
53034;SDS011;38923;53.236;6.506;2022-09-03T06:49:13;3.00;;;1.30;;
53034;SDS011;38923;53.236;6.506;2022-09-03T06:51:39;2.70;;;1.38;;
53034;SDS011;38923;53.236;6.506;2022-09-03T06:54:08;5.55;;;1.20;;
53034;SDS011;38923;53.236;6.506;2022-09-03T06:56:35;2.67;;;1.27;;
53034;SDS011;38923;53.236;6.506;2022-09-03T06:59:04;2.90;;;1.38;;
53034;SDS011;38923;53.236;6.506;2022-09-03T07:01:34;4.22;;;1.20;;
53034;SDS011;38923;53.236;6.506;2022-09-03T07:04:05;2.65;;;1.30;;
53034;SDS011;38923;53.236;6.506;2022-09-03T07:06:32;5.20;;;1.13;;
53034;SDS011;38923;53.236;6.506;2022-09-03T07:09:03;4.65;;;1.20;;
53034;SDS011;38923;53.236;6.506;2022-09-03T07:11:30;1.95;;;1.30;;
53034;SDS011;38923;53.236;6.506;2022-09-03T07:13:57;2.40;;;1.00;;
53034;SDS011;38923;53.236;6.506;2022-09-03T07:16:28;2.30;;;1.25;;
53034;SDS011;38923;53.236;6.506;2022-09-03T07:18:58;2.53;;;1.17;;
53034;SDS011;38923;53.236;6.506;2022-09-03T07:21:26;4.78;;;1.40;;
53034;SDS011;38923;53.236;6.506;2022-09-03T07:23:53;2.45;;;1.20;;
53034;SDS011;38923;53.236;6.506;2022-09-03T07:28:50;2.92;;;1.08;;
53034;SDS011;38923;53.236;6.506;2022-09-03T07:33:59;1.92;;;1.08;;
53034;SDS011;38923;53.236;6.506;2022-09-03T07:36:29;2.30;;;1.02;;
53034;SDS011;38923;53.236;6.506;2022-09-03T07:38:56;3.47;;;1.10;;
53034;SDS011;38923;53.236;6.506;2022-09-03T07:41:23;2.63;;;1.00;;
53034;SDS011;38923;53.236;6.506;2022-09-03T07:43:51;2.97;;;1.30;;
53034;SDS011;38923;53.236;6.506;2022-09-03T07:46:18;5.03;;;1.10;;
53034;SDS011;38923;53.236;6.506;2022-09-03T07:51:18;3.78;;;1.05;;
53034;SDS011;38923;53.236;6.506;2022-09-03T07:53:45;3.47;;;1.33;;
53034;SDS011;38923;53.236;6.506;2022-09-03T07:56:12;5.28;;;1.00;;
53034;SDS011;38923;53.236;6.506;2022-09-03T07:58:40;4.05;;;1.10;;
53034;SDS011;38923;53.236;6.506;2022-09-03T08:01:10;1.67;;;1.10;;
53034;SDS011;38923;53.236;6.506;2022-09-03T08:03:41;3.90;;;1.00;;
53034;SDS011;38923;53.236;6.506;2022-09-03T08:06:08;3.78;;;1.05;;
53034;SDS011;38923;53.236;6.506;2022-09-03T08:08:35;3.20;;;0.95;;
53034;SDS011;38923;53.236;6.506;2022-09-03T08:11:09;7.05;;;1.35;;
53034;SDS011;38923;53.236;6.506;2022-09-03T08:16:26;4.40;;;1.23;;
53034;SDS011;38923;53.236;6.506;2022-09-03T08:18:56;1.48;;;0.85;;
53034;SDS011;38923;53.236;6.506;2022-09-03T08:21:22;3.78;;;1.10;;
53034;SDS011;38923;53.236;6.506;2022-09-03T08:23:49;3.20;;;1.00;;
53034;SDS011;38923;53.236;6.506;2022-09-03T08:26:17;2.33;;;0.90;;
53034;SDS011;38923;53.236;6.506;2022-09-03T08:28:46;2.80;;;0.85;;
53034;SDS011;38923;53.236;6.506;2022-09-03T08:31:19;4.07;;;1.02;;
53034;SDS011;38923;53.236;6.506;2022-09-03T08:33:48;2.35;;;0.95;;
53034;SDS011;38923;53.236;6.506;2022-09-03T08:36:19;2.83;;;0.95;;
53034;SDS011;38923;53.236;6.506;2022-09-03T08:38:47;4.05;;;1.42;;
53034;SDS011;38923;53.236;6.506;2022-09-03T08:41:15;2.20;;;0.80;;
53034;SDS011;38923;53.236;6.506;2022-09-03T08:46:32;3.55;;;1.17;;
53034;SDS011;38923;53.236;6.506;2022-09-03T08:49:13;3.65;;;1.23;;
53034;SDS011;38923;53.236;6.506;2022-09-03T08:51:43;3.22;;;1.00;;
53034;SDS011;38923;53.236;6.506;2022-09-03T08:54:12;7.85;;;1.00;;
53034;SDS011;38923;53.236;6.506;2022-09-03T08:56:39;3.85;;;0.93;;
53034;SDS011;38923;53.236;6.506;2022-09-03T08:59:07;3.33;;;1.00;;
53034;SDS011;38923;53.236;6.506;2022-09-03T09:01:49;4.28;;;1.13;;
53034;SDS011;38923;53.236;6.506;2022-09-03T09:04:45;4.05;;;1.05;;
53034;SDS011;38923;53.236;6.506;2022-09-03T09:07:31;1.45;;;1.00;;
53034;SDS011;38923;53.236;6.506;2022-09-03T09:10:16;2.80;;;0.98;;
53034;SDS011;38923;53.236;6.506;2022-09-03T09:13:02;3.13;;;1.10;;
53034;SDS011;38923;53.236;6.506;2022-09-03T09:15:53;2.30;;;0.90;;
53034;SDS011;38923;53.236;6.506;2022-09-03T09:21:14;3.15;;;1.00;;
53034;SDS011;38923;53.236;6.506;2022-09-03T09:23:45;5.57;;;1.00;;
53034;SDS011;38923;53.236;6.506;2022-09-03T09:26:14;6.13;;;1.27;;
53034;SDS011;38923;53.236;6.506;2022-09-03T09:28:46;3.00;;;1.10;;
53034;SDS011;38923;53.236;6.506;2022-09-03T09:31:16;3.28;;;0.98;;
53034;SDS011;38923;53.236;6.506;2022-09-03T09:33:45;4.88;;;1.00;;
53034;SDS011;38923;53.236;6.506;2022-09-03T09:36:12;1.67;;;0.68;;
53034;SDS011;38923;53.236;6.506;2022-09-03T09:38:41;3.50;;;1.20;;
53034;SDS011;38923;53.236;6.506;2022-09-03T09:41:12;2.08;;;0.82;;
53034;SDS011;38923;53.236;6.506;2022-09-03T09:43:47;6.35;;;1.02;;
53034;SDS011;38923;53.236;6.506;2022-09-03T09:46:26;3.45;;;1.20;;
53034;SDS011;38923;53.236;6.506;2022-09-03T09:49:07;2.00;;;0.98;;
53034;SDS011;38923;53.236;6.506;2022-09-03T09:51:59;2.15;;;0.75;;
53034;SDS011;38923;53.236;6.506;2022-09-03T09:54:33;2.70;;;0.70;;
53034;SDS011;38923;53.236;6.506;2022-09-03T09:57:00;5.97;;;1.10;;
53034;SDS011;38923;53.236;6.506;2022-09-03T09:59:28;2.85;;;0.90;;
53034;SDS011;38923;53.236;6.506;2022-09-03T10:02:03;4.78;;;1.27;;
53034;SDS011;38923;53.236;6.506;2022-09-03T10:04:34;2.22;;;0.80;;
53034;SDS011;38923;53.236;6.506;2022-09-03T10:07:15;3.00;;;0.80;;
53034;SDS011;38923;53.236;6.506;2022-09-03T10:12:49;3.58;;;0.88;;
53034;SDS011;38923;53.236;6.506;2022-09-03T10:20:30;2.58;;;1.02;;
53034;SDS011;38923;53.236;6.506;2022-09-03T10:23:31;4.22;;;0.90;;
53034;SDS011;38923;53.236;6.506;2022-09-03T10:26:17;5.67;;;0.70;;
53034;SDS011;38923;53.236;6.506;2022-09-03T10:28:48;5.53;;;1.00;;
53034;SDS011;38923;53.236;6.506;2022-09-03T10:39:24;5.20;;;0.93;;
53034;SDS011;38923;53.236;6.506;2022-09-03T10:44:59;4.10;;;0.95;;
53034;SDS011;38923;53.236;6.506;2022-09-03T11:00:57;4.97;;;0.68;;
53034;SDS011;38923;53.236;6.506;2022-09-03T11:03:45;1.15;;;0.60;;
53034;SDS011;38923;53.236;6.506;2022-09-03T11:06:23;4.47;;;0.90;;
53034;SDS011;38923;53.236;6.506;2022-09-03T11:08:57;5.20;;;0.90;;
53034;SDS011;38923;53.236;6.506;2022-09-03T11:11:31;4.63;;;0.70;;
53034;SDS011;38923;53.236;6.506;2022-09-03T11:14:06;5.25;;;0.93;;
53034;SDS011;38923;53.236;6.506;2022-09-03T11:16:41;3.75;;;1.00;;
53034;SDS011;38923;53.236;6.506;2022-09-03T11:19:11;2.90;;;0.80;;
53034;SDS011;38923;53.236;6.506;2022-09-03T11:21:40;2.40;;;1.00;;
53034;SDS011;38923;53.236;6.506;2022-09-03T11:24:16;3.55;;;0.70;;
53034;SDS011;38923;53.236;6.506;2022-09-03T11:26:54;3.25;;;0.70;;
53034;SDS011;38923;53.236;6.506;2022-09-03T11:38:02;3.88;;;0.77;;
53034;SDS011;38923;53.236;6.506;2022-09-03T11:40:33;3.55;;;1.00;;
53034;SDS011;38923;53.236;6.506;2022-09-03T11:43:04;1.98;;;0.50;;
53034;SDS011;38923;53.236;6.506;2022-09-03T11:45:48;6.75;;;0.65;;
53034;SDS011;38923;53.236;6.506;2022-09-03T11:48:37;2.22;;;0.82;;
53034;SDS011;38923;53.236;6.506;2022-09-03T11:51:17;4.88;;;1.30;;
53034;SDS011;38923;53.236;6.506;2022-09-03T11:56:38;3.13;;;0.70;;
53034;SDS011;38923;53.236;6.506;2022-09-03T12:01:38;2.15;;;0.40;;
53034;SDS011;38923;53.236;6.506;2022-09-03T12:04:09;3.63;;;0.95;;
53034;SDS011;38923;53.236;6.506;2022-09-03T12:09:20;0.82;;;0.50;;
53034;SDS011;38923;53.236;6.506;2022-09-03T12:12:19;5.65;;;0.90;;
53034;SDS011;38923;53.236;6.506;2022-09-03T12:20:44;1.38;;;0.47;;
53034;SDS011;38923;53.236;6.506;2022-09-03T12:23:12;2.83;;;0.60;;
53034;SDS011;38923;53.236;6.506;2022-09-03T12:25:50;2.22;;;0.73;;
53034;SDS011;38923;53.236;6.506;2022-09-03T12:28:18;1.70;;;0.68;;
53034;SDS011;38923;53.236;6.506;2022-09-03T12:30:47;3.05;;;0.57;;
53034;SDS011;38923;53.236;6.506;2022-09-03T12:33:17;1.33;;;0.60;;
53034;SDS011;38923;53.236;6.506;2022-09-03T12:35:57;10.23;;;0.90;;
53034;SDS011;38923;53.236;6.506;2022-09-03T12:38:25;2.67;;;0.60;;
53034;SDS011;38923;53.236;6.506;2022-09-03T12:40:53;3.25;;;0.55;;
53034;SDS011;38923;53.236;6.506;2022-09-03T12:43:19;5.80;;;0.70;;
53034;SDS011;38923;53.236;6.506;2022-09-03T12:45:52;1.23;;;0.52;;
53034;SDS011;38923;53.236;6.506;2022-09-03T12:48:18;5.70;;;0.90;;
53034;SDS011;38923;53.236;6.506;2022-09-03T12:50:45;3.05;;;0.70;;
53034;SDS011;38923;53.236;6.506;2022-09-03T12:53:19;2.35;;;0.70;;
53034;SDS011;38923;53.236;6.506;2022-09-03T12:55:50;1.30;;;0.50;;
53034;SDS011;38923;53.236;6.506;2022-09-03T12:58:20;3.35;;;0.80;;
53034;SDS011;38923;53.236;6.506;2022-09-03T13:04:05;4.05;;;0.90;;
53034;SDS011;38923;53.236;6.506;2022-09-03T13:06:59;6.10;;;1.17;;
53034;SDS011;38923;53.236;6.506;2022-09-03T13:09:29;3.17;;;0.68;;
53034;SDS011;38923;53.236;6.506;2022-09-03T13:12:00;3.72;;;0.70;;
53034;SDS011;38923;53.236;6.506;2022-09-03T13:14:40;3.03;;;0.55;;
53034;SDS011;38923;53.236;6.506;2022-09-03T13:20:37;3.95;;;0.73;;
53034;SDS011;38923;53.236;6.506;2022-09-03T13:28:48;1.35;;;0.70;;
53034;SDS011;38923;53.236;6.506;2022-09-03T13:31:26;3.83;;;0.60;;
53034;SDS011;38923;53.236;6.506;2022-09-03T13:34:12;3.53;;;0.70;;
53034;SDS011;38923;53.236;6.506;2022-09-03T13:36:48;2.83;;;0.70;;
53034;SDS011;38923;53.236;6.506;2022-09-03T13:39:20;4.85;;;0.90;;
53034;SDS011;38923;53.236;6.506;2022-09-03T13:41:54;4.75;;;0.80;;
53034;SDS011;38923;53.236;6.506;2022-09-03T13:44:46;1.63;;;0.50;;
53034;SDS011;38923;53.236;6.506;2022-09-03T13:47:21;3.17;;;0.57;;
53034;SDS011;38923;53.236;6.506;2022-09-03T13:53:05;2.55;;;0.50;;
53034;SDS011;38923;53.236;6.506;2022-09-03T13:58:30;1.90;;;0.80;;
53034;SDS011;38923;53.236;6.506;2022-09-03T14:01:12;3.55;;;0.80;;
53034;SDS011;38923;53.236;6.506;2022-09-03T14:03:47;8.02;;;0.70;;
53034;SDS011;38923;53.236;6.506;2022-09-03T14:06:38;4.78;;;0.63;;
53034;SDS011;38923;53.236;6.506;2022-09-03T14:09:19;2.67;;;0.63;;
53034;SDS011;38923;53.236;6.506;2022-09-03T14:14:27;3.58;;;0.80;;
53034;SDS011;38923;53.236;6.506;2022-09-03T14:24:51;2.00;;;0.80;;
53034;SDS011;38923;53.236;6.506;2022-09-03T14:27:22;1.67;;;0.70;;
53034;SDS011;38923;53.236;6.506;2022-09-03T14:29:52;1.05;;;0.52;;
53034;SDS011;38923;53.236;6.506;2022-09-03T14:32:36;4.75;;;0.85;;
53034;SDS011;38923;53.236;6.506;2022-09-03T15:00:04;3.53;;;0.70;;
53034;SDS011;38923;53.236;6.506;2022-09-03T15:05:52;2.55;;;0.63;;
53034;SDS011;38923;53.236;6.506;2022-09-03T15:27:05;3.28;;;0.70;;
53034;SDS011;38923;53.236;6.506;2022-09-03T15:30:13;5.60;;;0.80;;
53034;SDS011;38923;53.236;6.506;2022-09-03T15:38:18;7.65;;;0.82;;
53034;SDS011;38923;53.236;6.506;2022-09-03T15:40:50;2.17;;;0.65;;
53034;SDS011;38923;53.236;6.506;2022-09-03T15:45:55;2.53;;;0.70;;
53034;SDS011;38923;53.236;6.506;2022-09-03T15:48:49;1.95;;;0.65;;
53034;SDS011;38923;53.236;6.506;2022-09-03T15:51:21;3.78;;;0.73;;
53034;SDS011;38923;53.236;6.506;2022-09-03T15:56:33;2.75;;;0.90;;
53034;SDS011;38923;53.236;6.506;2022-09-03T15:59:18;2.55;;;0.95;;
53034;SDS011;38923;53.236;6.506;2022-09-03T16:15:13;4.43;;;0.90;;
53034;SDS011;38923;53.236;6.506;2022-09-03T16:20:48;5.68;;;0.88;;
53034;SDS011;38923;53.236;6.506;2022-09-03T16:23:37;4.10;;;1.00;;
53034;SDS011;38923;53.236;6.506;2022-09-03T16:29:13;4.95;;;0.82;;
53034;SDS011;38923;53.236;6.506;2022-09-03T16:42:30;2.72;;;0.80;;
53034;SDS011;38923;53.236;6.506;2022-09-03T16:53:12;5.00;;;0.88;;
53034;SDS011;38923;53.236;6.506;2022-09-03T17:09:45;4.07;;;0.93;;
53034;SDS011;38923;53.236;6.506;2022-09-03T17:23:56;6.38;;;0.90;;
53034;SDS011;38923;53.236;6.506;2022-09-03T17:29:34;2.65;;;0.85;;
53034;SDS011;38923;53.236;6.506;2022-09-03T17:32:25;6.70;;;0.80;;
53034;SDS011;38923;53.236;6.506;2022-09-03T17:48:27;3.97;;;0.90;;
53034;SDS011;38923;53.236;6.506;2022-09-03T17:54:11;2.70;;;0.80;;
53034;SDS011;38923;53.236;6.506;2022-09-03T17:57:01;2.95;;;0.80;;
53034;SDS011;38923;53.236;6.506;2022-09-03T17:59:39;2.42;;;1.00;;
53034;SDS011;38923;53.236;6.506;2022-09-03T18:02:17;4.93;;;0.85;;
53034;SDS011;38923;53.236;6.506;2022-09-03T18:05:05;6.90;;;0.82;;
53034;SDS011;38923;53.236;6.506;2022-09-03T18:10:38;5.05;;;1.02;;
53034;SDS011;38923;53.236;6.506;2022-09-03T18:15:47;2.42;;;1.00;;
53034;SDS011;38923;53.236;6.506;2022-09-03T18:18:27;4.82;;;0.98;;
53034;SDS011;38923;53.236;6.506;2022-09-03T18:20:55;3.80;;;1.00;;
53034;SDS011;38923;53.236;6.506;2022-09-03T18:24:01;7.72;;;1.17;;
53034;SDS011;38923;53.236;6.506;2022-09-03T18:26:58;2.75;;;1.05;;
53034;SDS011;38923;53.236;6.506;2022-09-03T18:29:49;3.05;;;0.93;;
53034;SDS011;38923;53.236;6.506;2022-09-03T18:32:42;6.47;;;0.80;;
53034;SDS011;38923;53.236;6.506;2022-09-03T18:35:28;6.22;;;1.00;;
53034;SDS011;38923;53.236;6.506;2022-09-03T18:38:13;3.42;;;0.90;;
53034;SDS011;38923;53.236;6.506;2022-09-03T18:41:05;2.20;;;1.00;;
53034;SDS011;38923;53.236;6.506;2022-09-03T18:50:03;5.60;;;0.80;;
53034;SDS011;38923;53.236;6.506;2022-09-03T18:53:01;4.78;;;1.25;;
53034;SDS011;38923;53.236;6.506;2022-09-03T18:56:08;8.68;;;1.20;;
53034;SDS011;38923;53.236;6.506;2022-09-03T19:02:06;4.82;;;0.88;;
53034;SDS011;38923;53.236;6.506;2022-09-03T19:08:19;6.68;;;1.30;;
53034;SDS011;38923;53.236;6.506;2022-09-03T19:14:14;7.88;;;1.20;;
53034;SDS011;38923;53.236;6.506;2022-09-03T19:17:27;5.38;;;1.48;;
53034;SDS011;38923;53.236;6.506;2022-09-03T19:20:21;5.00;;;1.02;;
53034;SDS011;38923;53.236;6.506;2022-09-03T19:23:11;1.58;;;0.77;;
53034;SDS011;38923;53.236;6.506;2022-09-03T19:25:56;3.88;;;1.05;;
53034;SDS011;38923;53.236;6.506;2022-09-03T19:28:46;3.78;;;0.90;;
53034;SDS011;38923;53.236;6.506;2022-09-03T19:31:46;3.05;;;0.85;;
53034;SDS011;38923;53.236;6.506;2022-09-03T19:34:44;3.47;;;0.98;;
53034;SDS011;38923;53.236;6.506;2022-09-03T19:43:45;3.65;;;0.88;;
53034;SDS011;38923;53.236;6.506;2022-09-03T19:49:47;3.10;;;0.73;;
53034;SDS011;38923;53.236;6.506;2022-09-03T19:55:39;3.38;;;0.82;;
53034;SDS011;38923;53.236;6.506;2022-09-03T19:58:26;4.50;;;1.05;;
53034;SDS011;38923;53.236;6.506;2022-09-03T20:01:14;5.72;;;1.00;;
53034;SDS011;38923;53.236;6.506;2022-09-03T20:04:11;2.38;;;0.88;;
53034;SDS011;38923;53.236;6.506;2022-09-03T20:06:58;5.18;;;0.80;;
53034;SDS011;38923;53.236;6.506;2022-09-03T20:09:46;2.78;;;1.00;;
53034;SDS011;38923;53.236;6.506;2022-09-03T20:12:33;4.30;;;0.98;;
53034;SDS011;38923;53.236;6.506;2022-09-03T20:15:03;3.53;;;1.13;;
53034;SDS011;38923;53.236;6.506;2022-09-03T20:17:52;1.77;;;0.90;;
53034;SDS011;38923;53.236;6.506;2022-09-03T20:28:15;1.88;;;0.90;;
53034;SDS011;38923;53.236;6.506;2022-09-03T20:41:57;3.30;;;0.98;;
53034;SDS011;38923;53.236;6.506;2022-09-03T20:44:46;3.83;;;1.13;;
53034;SDS011;38923;53.236;6.506;2022-09-03T20:52:48;4.07;;;1.13;;
53034;SDS011;38923;53.236;6.506;2022-09-03T20:55:41;1.52;;;0.60;;
53034;SDS011;38923;53.236;6.506;2022-09-03T21:00:47;3.33;;;0.90;;
53034;SDS011;38923;53.236;6.506;2022-09-03T21:03:40;8.07;;;0.98;;
53034;SDS011;38923;53.236;6.506;2022-09-03T21:06:22;6.10;;;1.10;;
53034;SDS011;38923;53.236;6.506;2022-09-03T21:08:54;3.90;;;1.05;;
53034;SDS011;38923;53.236;6.506;2022-09-03T21:11:40;3.95;;;0.93;;
53034;SDS011;38923;53.236;6.506;2022-09-03T21:14:21;2.03;;;1.10;;
53034;SDS011;38923;53.236;6.506;2022-09-03T21:17:07;9.20;;;0.93;;
53034;SDS011;38923;53.236;6.506;2022-09-03T21:19:45;5.25;;;0.90;;
53034;SDS011;38923;53.236;6.506;2022-09-03T21:25:16;5.68;;;0.90;;
53034;SDS011;38923;53.236;6.506;2022-09-03T21:28:00;2.08;;;0.90;;